CheckWX is a tool to help pilots better visualize weather data.  It is not intended as a substitute for an official pre-flight weather briefing.

03:11:05 UTC

KCLI METAR
Clintonville Municipal Airport
Clintonville, Wisconsin, USA
Current

16 mins ago

KCLI 250255Z AUTO 02005KT 4SM -SN OVC004 01/00 A2983 RMK AO2 P0001 60002 T00051003
Observed
Jan-25 @ 02:55 UTC
Wind
  • 020° at 5 KTS
Visibility
4 SM
Flight Rules
LIFR
Conditions
Light Snow
Cloud Levels
  • Overcast at 400' AGL
Temperature
C / 34°F
Dewpoint
-0°C / 32°F
Humidity
93%
Altimeter
29.83" Hg
Pressure
1010.12 hPa
Current Rain
0.01"
Previous

36 mins ago

KCLI 250235Z AUTO 02006KT 2 1/2SM -SN OVC004 01/00 A2984 RMK AO2 P0001 T00051003
Observed
Jan-25 @ 02:35 UTC
Wind
  • 020° at 6 KTS
Visibility
2 1/2 SM
Flight Rules
LIFR
Conditions
Light Snow
Cloud Levels
  • Overcast at 400' AGL
Temperature
C / 34°F
Dewpoint
-0°C / 32°F
Humidity
93%
Altimeter
29.84" Hg
Pressure
1010.52 hPa
Current Rain
0.01"
Previous

56 mins ago

KCLI 250215Z AUTO 01007KT 4SM -SN OVC004 01/00 A2984 RMK AO2 T00051002
Observed
Jan-25 @ 02:15 UTC
Wind
  • 010° at 7 KTS
Visibility
4 SM
Flight Rules
LIFR
Conditions
Light Snow
Cloud Levels
  • Overcast at 400' AGL
Temperature
C / 34°F
Dewpoint
-0°C / 32°F
Humidity
93%
Altimeter
29.84" Hg
Pressure
1010.52 hPa